sensor_id;sensor_type;location;lat;lon;timestamp;P1;durP1;ratioP1;P2;durP2;ratioP2
76786;SDS011;65739;51.482;5.702;2024-03-08T00:02:18;37.03;;;17.52;;
76786;SDS011;65739;51.482;5.702;2024-03-08T00:08:47;38.22;;;18.08;;
76786;SDS011;65739;51.482;5.702;2024-03-08T00:20:54;37.15;;;18.33;;
76786;SDS011;65739;51.482;5.702;2024-03-08T00:33:39;41.20;;;18.55;;
76786;SDS011;65739;51.482;5.702;2024-03-08T00:43:01;42.60;;;18.05;;
76786;SDS011;65739;51.482;5.702;2024-03-08T00:45:41;34.42;;;17.63;;
76786;SDS011;65739;51.482;5.702;2024-03-08T00:48:10;36.50;;;17.45;;
76786;SDS011;65739;51.482;5.702;2024-03-08T01:07:15;36.53;;;17.65;;
76786;SDS011;65739;51.482;5.702;2024-03-08T01:13:24;37.90;;;17.73;;
76786;SDS011;65739;51.482;5.702;2024-03-08T01:22:44;37.20;;;17.30;;
76786;SDS011;65739;51.482;5.702;2024-03-08T01:25:17;33.72;;;17.42;;
76786;SDS011;65739;51.482;5.702;2024-03-08T01:27:46;31.23;;;16.20;;
76786;SDS011;65739;51.482;5.702;2024-03-08T01:30:58;36.55;;;17.70;;
76786;SDS011;65739;51.482;5.702;2024-03-08T01:43:32;29.48;;;16.95;;
76786;SDS011;65739;51.482;5.702;2024-03-08T01:46:01;28.90;;;16.55;;
76786;SDS011;65739;51.482;5.702;2024-03-08T01:48:33;36.35;;;17.42;;
76786;SDS011;65739;51.482;5.702;2024-03-08T01:51:37;31.80;;;17.80;;
76786;SDS011;65739;51.482;5.702;2024-03-08T01:54:07;39.60;;;18.33;;
76786;SDS011;65739;51.482;5.702;2024-03-08T01:56:38;33.28;;;17.60;;
76786;SDS011;65739;51.482;5.702;2024-03-08T02:05:38;36.00;;;17.83;;
76786;SDS011;65739;51.482;5.702;2024-03-08T02:08:30;32.45;;;16.83;;
76786;SDS011;65739;51.482;5.702;2024-03-08T02:24:50;39.22;;;17.75;;
76786;SDS011;65739;51.482;5.702;2024-03-08T02:27:28;37.28;;;18.23;;
76786;SDS011;65739;51.482;5.702;2024-03-08T02:43:16;36.33;;;17.58;;
76786;SDS011;65739;51.482;5.702;2024-03-08T02:45:49;37.70;;;17.83;;
76786;SDS011;65739;51.482;5.702;2024-03-08T02:48:19;36.70;;;18.55;;
76786;SDS011;65739;51.482;5.702;2024-03-08T02:51:23;36.17;;;18.10;;
76786;SDS011;65739;51.482;5.702;2024-03-08T03:00:15;34.92;;;18.38;;
76786;SDS011;65739;51.482;5.702;2024-03-08T03:05:33;34.15;;;18.95;;
76786;SDS011;65739;51.482;5.702;2024-03-08T03:07:59;32.72;;;19.33;;
76786;SDS011;65739;51.482;5.702;2024-03-08T03:19:41;38.90;;;18.90;;
76786;SDS011;65739;51.482;5.702;2024-03-08T03:22:10;39.70;;;19.30;;
76786;SDS011;65739;51.482;5.702;2024-03-08T03:24:36;37.47;;;20.50;;
76786;SDS011;65739;51.482;5.702;2024-03-08T03:27:06;38.20;;;19.85;;
76786;SDS011;65739;51.482;5.702;2024-03-08T03:35:50;33.15;;;19.50;;
76786;SDS011;65739;51.482;5.702;2024-03-08T03:38:19;37.20;;;19.05;;
76786;SDS011;65739;51.482;5.702;2024-03-08T03:40:57;38.05;;;19.35;;
76786;SDS011;65739;51.482;5.702;2024-03-08T03:50:12;40.35;;;19.67;;
76786;SDS011;65739;51.482;5.702;2024-03-08T03:52:53;36.60;;;20.17;;
76786;SDS011;65739;51.482;5.702;2024-03-08T03:59:18;41.20;;;19.48;;
76786;SDS011;65739;51.482;5.702;2024-03-08T04:04:57;38.80;;;19.15;;
76786;SDS011;65739;51.482;5.702;2024-03-08T04:07:33;37.33;;;20.00;;
76786;SDS011;65739;51.482;5.702;2024-03-08T04:13:10;38.88;;;20.15;;
76786;SDS011;65739;51.482;5.702;2024-03-08T04:15:37;37.17;;;20.13;;
76786;SDS011;65739;51.482;5.702;2024-03-08T04:18:10;40.47;;;20.20;;
76786;SDS011;65739;51.482;5.702;2024-03-08T04:20:42;38.75;;;20.60;;
76786;SDS011;65739;51.482;5.702;2024-03-08T04:23:08;40.95;;;20.08;;
76786;SDS011;65739;51.482;5.702;2024-03-08T04:25:36;36.00;;;19.98;;
76786;SDS011;65739;51.482;5.702;2024-03-08T04:28:18;42.05;;;21.10;;
76786;SDS011;65739;51.482;5.702;2024-03-08T04:31:06;39.25;;;20.98;;
76786;SDS011;65739;51.482;5.702;2024-03-08T04:33:35;42.22;;;20.55;;
76786;SDS011;65739;51.482;5.702;2024-03-08T04:36:23;39.83;;;20.33;;
76786;SDS011;65739;51.482;5.702;2024-03-08T04:38:57;37.17;;;20.70;;
76786;SDS011;65739;51.482;5.702;2024-03-08T04:42:08;43.50;;;22.27;;
76786;SDS011;65739;51.482;5.702;2024-03-08T04:44:15;40.28;;;20.55;;
76786;SDS011;65739;51.482;5.702;2024-03-08T04:46:44;39.58;;;21.70;;
76786;SDS011;65739;51.482;5.702;2024-03-08T04:49:13;43.63;;;21.88;;
76786;SDS011;65739;51.482;5.702;2024-03-08T04:51:39;40.42;;;21.25;;
76786;SDS011;65739;51.482;5.702;2024-03-08T04:57:33;42.60;;;21.50;;
76786;SDS011;65739;51.482;5.702;2024-03-08T05:00:20;45.17;;;22.67;;
76786;SDS011;65739;51.482;5.702;2024-03-08T05:02:46;44.47;;;22.02;;
76786;SDS011;65739;51.482;5.702;2024-03-08T05:05:11;42.05;;;21.40;;
76786;SDS011;65739;51.482;5.702;2024-03-08T05:07:38;40.50;;;21.90;;
76786;SDS011;65739;51.482;5.702;2024-03-08T05:10:10;43.22;;;22.65;;
76786;SDS011;65739;51.482;5.702;2024-03-08T05:12:42;39.55;;;21.30;;
76786;SDS011;65739;51.482;5.702;2024-03-08T05:15:11;43.38;;;21.67;;
76786;SDS011;65739;51.482;5.702;2024-03-08T05:17:37;50.75;;;22.63;;
76786;SDS011;65739;51.482;5.702;2024-03-08T05:20:07;44.17;;;22.30;;
76786;SDS011;65739;51.482;5.702;2024-03-08T05:22:36;45.63;;;23.65;;
76786;SDS011;65739;51.482;5.702;2024-03-08T05:25:34;46.20;;;23.38;;
76786;SDS011;65739;51.482;5.702;2024-03-08T05:28:13;43.45;;;22.63;;
76786;SDS011;65739;51.482;5.702;2024-03-08T05:30:39;43.42;;;22.45;;
76786;SDS011;65739;51.482;5.702;2024-03-08T05:33:05;44.58;;;23.17;;
76786;SDS011;65739;51.482;5.702;2024-03-08T05:35:42;43.67;;;21.65;;
76786;SDS011;65739;51.482;5.702;2024-03-08T05:38:08;42.95;;;23.20;;
76786;SDS011;65739;51.482;5.702;2024-03-08T05:41:24;43.13;;;23.05;;
76786;SDS011;65739;51.482;5.702;2024-03-08T05:43:50;47.17;;;23.73;;
76786;SDS011;65739;51.482;5.702;2024-03-08T05:46:16;45.97;;;23.67;;
76786;SDS011;65739;51.482;5.702;2024-03-08T05:48:46;41.40;;;23.00;;
76786;SDS011;65739;51.482;5.702;2024-03-08T05:51:12;45.45;;;23.60;;
76786;SDS011;65739;51.482;5.702;2024-03-08T05:53:47;46.20;;;22.90;;
76786;SDS011;65739;51.482;5.702;2024-03-08T05:56:17;46.90;;;22.95;;
76786;SDS011;65739;51.482;5.702;2024-03-08T05:59:17;43.65;;;22.92;;
76786;SDS011;65739;51.482;5.702;2024-03-08T06:01:44;42.75;;;21.88;;
76786;SDS011;65739;51.482;5.702;2024-03-08T06:04:12;45.92;;;22.52;;
76786;SDS011;65739;51.482;5.702;2024-03-08T06:06:49;48.25;;;23.38;;
76786;SDS011;65739;51.482;5.702;2024-03-08T06:09:16;42.53;;;21.85;;
76786;SDS011;65739;51.482;5.702;2024-03-08T06:11:48;47.05;;;23.10;;
76786;SDS011;65739;51.482;5.702;2024-03-08T06:14:16;39.33;;;21.55;;
76786;SDS011;65739;51.482;5.702;2024-03-08T06:16:52;43.30;;;22.58;;
76786;SDS011;65739;51.482;5.702;2024-03-08T06:19:21;47.35;;;23.13;;
76786;SDS011;65739;51.482;5.702;2024-03-08T06:24:31;48.00;;;22.88;;
76786;SDS011;65739;51.482;5.702;2024-03-08T06:26:57;47.60;;;23.33;;
76786;SDS011;65739;51.482;5.702;2024-03-08T06:29:23;41.72;;;21.45;;
76786;SDS011;65739;51.482;5.702;2024-03-08T06:31:49;45.67;;;22.23;;
76786;SDS011;65739;51.482;5.702;2024-03-08T06:34:15;44.67;;;22.50;;
76786;SDS011;65739;51.482;5.702;2024-03-08T06:36:41;41.30;;;21.77;;
76786;SDS011;65739;51.482;5.702;2024-03-08T06:39:25;44.67;;;22.75;;
76786;SDS011;65739;51.482;5.702;2024-03-08T06:41:55;48.35;;;22.58;;
76786;SDS011;65739;51.482;5.702;2024-03-08T06:44:21;48.92;;;22.33;;
76786;SDS011;65739;51.482;5.702;2024-03-08T06:46:51;47.30;;;22.23;;
76786;SDS011;65739;51.482;5.702;2024-03-08T06:49:16;46.28;;;22.75;;
76786;SDS011;65739;51.482;5.702;2024-03-08T06:51:42;43.28;;;22.00;;
76786;SDS011;65739;51.482;5.702;2024-03-08T06:54:08;43.00;;;21.80;;
76786;SDS011;65739;51.482;5.702;2024-03-08T06:56:34;43.00;;;22.00;;
76786;SDS011;65739;51.482;5.702;2024-03-08T06:59:03;42.40;;;20.95;;
76786;SDS011;65739;51.482;5.702;2024-03-08T07:01:29;42.78;;;20.42;;
76786;SDS011;65739;51.482;5.702;2024-03-08T07:09:36;42.97;;;21.55;;
76786;SDS011;65739;51.482;5.702;2024-03-08T07:12:02;44.53;;;21.88;;
76786;SDS011;65739;51.482;5.702;2024-03-08T07:14:29;45.92;;;21.83;;
76786;SDS011;65739;51.482;5.702;2024-03-08T07:17:19;42.25;;;20.65;;
76786;SDS011;65739;51.482;5.702;2024-03-08T07:19:50;43.42;;;20.45;;
76786;SDS011;65739;51.482;5.702;2024-03-08T07:23:02;57.20;;;26.13;;
76786;SDS011;65739;51.482;5.702;2024-03-08T07:25:36;37.70;;;20.77;;
76786;SDS011;65739;51.482;5.702;2024-03-08T07:28:05;38.42;;;20.17;;
76786;SDS011;65739;51.482;5.702;2024-03-08T07:30:31;39.38;;;21.02;;
76786;SDS011;65739;51.482;5.702;2024-03-08T07:33:32;42.92;;;20.60;;
76786;SDS011;65739;51.482;5.702;2024-03-08T07:36:04;44.05;;;19.77;;
76786;SDS011;65739;51.482;5.702;2024-03-08T07:38:30;33.67;;;19.35;;
76786;SDS011;65739;51.482;5.702;2024-03-08T07:40:59;40.17;;;20.75;;
76786;SDS011;65739;51.482;5.702;2024-03-08T07:43:29;41.50;;;20.00;;
76786;SDS011;65739;51.482;5.702;2024-03-08T07:46:20;36.53;;;19.45;;
76786;SDS011;65739;51.482;5.702;2024-03-08T07:52:37;38.97;;;19.67;;
76786;SDS011;65739;51.482;5.702;2024-03-08T07:55:28;41.20;;;20.20;;
76786;SDS011;65739;51.482;5.702;2024-03-08T07:58:04;40.30;;;20.00;;
76786;SDS011;65739;51.482;5.702;2024-03-08T08:00:31;36.30;;;19.27;;
76786;SDS011;65739;51.482;5.702;2024-03-08T08:02:57;37.83;;;19.63;;
76786;SDS011;65739;51.482;5.702;2024-03-08T08:05:23;37.70;;;20.38;;
76786;SDS011;65739;51.482;5.702;2024-03-08T08:07:52;32.90;;;18.00;;
76786;SDS011;65739;51.482;5.702;2024-03-08T08:10:47;41.00;;;18.88;;
76786;SDS011;65739;51.482;5.702;2024-03-08T08:13:19;33.95;;;17.48;;
76786;SDS011;65739;51.482;5.702;2024-03-08T08:15:48;37.75;;;18.08;;
76786;SDS011;65739;51.482;5.702;2024-03-08T08:25:21;35.40;;;18.80;;
76786;SDS011;65739;51.482;5.702;2024-03-08T08:27:49;29.45;;;17.17;;
76786;SDS011;65739;51.482;5.702;2024-03-08T08:30:20;31.42;;;18.08;;
76786;SDS011;65739;51.482;5.702;2024-03-08T08:32:58;30.73;;;17.25;;
76786;SDS011;65739;51.482;5.702;2024-03-08T08:38:53;29.88;;;17.10;;
76786;SDS011;65739;51.482;5.702;2024-03-08T08:41:20;30.55;;;16.95;;
76786;SDS011;65739;51.482;5.702;2024-03-08T08:43:50;32.40;;;18.65;;
76786;SDS011;65739;51.482;5.702;2024-03-08T08:49:37;34.03;;;16.85;;
76786;SDS011;65739;51.482;5.702;2024-03-08T08:52:49;29.25;;;16.67;;
76786;SDS011;65739;51.482;5.702;2024-03-08T08:55:16;28.33;;;16.25;;
76786;SDS011;65739;51.482;5.702;2024-03-08T08:58:26;27.35;;;16.15;;
76786;SDS011;65739;51.482;5.702;2024-03-08T09:01:15;29.73;;;16.25;;
76786;SDS011;65739;51.482;5.702;2024-03-08T09:04:39;29.23;;;16.77;;
76786;SDS011;65739;51.482;5.702;2024-03-08T09:11:11;25.85;;;14.10;;
76786;SDS011;65739;51.482;5.702;2024-03-08T09:19:45;28.77;;;15.95;;
76786;SDS011;65739;51.482;5.702;2024-03-08T09:31:47;25.50;;;13.57;;
76786;SDS011;65739;51.482;5.702;2024-03-08T09:34:15;29.15;;;15.15;;
76786;SDS011;65739;51.482;5.702;2024-03-08T09:40:01;25.30;;;14.63;;
76786;SDS011;65739;51.482;5.702;2024-03-08T09:42:30;26.70;;;14.02;;
76786;SDS011;65739;51.482;5.702;2024-03-08T09:45:03;25.70;;;15.30;;
76786;SDS011;65739;51.482;5.702;2024-03-08T09:47:33;27.80;;;15.23;;
76786;SDS011;65739;51.482;5.702;2024-03-08T09:53:52;34.17;;;14.07;;
76786;SDS011;65739;51.482;5.702;2024-03-08T09:56:21;24.77;;;13.85;;
76786;SDS011;65739;51.482;5.702;2024-03-08T09:58:53;25.98;;;14.32;;
76786;SDS011;65739;51.482;5.702;2024-03-08T10:01:33;24.70;;;14.18;;
76786;SDS011;65739;51.482;5.702;2024-03-08T10:03:59;28.27;;;14.40;;
76786;SDS011;65739;51.482;5.702;2024-03-08T10:06:34;22.55;;;13.50;;
76786;SDS011;65739;51.482;5.702;2024-03-08T10:09:12;25.85;;;15.07;;
76786;SDS011;65739;51.482;5.702;2024-03-08T10:11:39;26.23;;;14.23;;
76786;SDS011;65739;51.482;5.702;2024-03-08T10:14:35;24.98;;;13.95;;
76786;SDS011;65739;51.482;5.702;2024-03-08T10:17:05;24.33;;;14.60;;
76786;SDS011;65739;51.482;5.702;2024-03-08T10:22:45;22.85;;;13.55;;
76786;SDS011;65739;51.482;5.702;2024-03-08T10:25:11;25.42;;;13.93;;
76786;SDS011;65739;51.482;5.702;2024-03-08T10:27:45;23.35;;;12.88;;
76786;SDS011;65739;51.482;5.702;2024-03-08T10:30:15;27.65;;;14.02;;
76786;SDS011;65739;51.482;5.702;2024-03-08T10:32:49;22.77;;;13.80;;
76786;SDS011;65739;51.482;5.702;2024-03-08T10:35:16;25.80;;;13.77;;
76786;SDS011;65739;51.482;5.702;2024-03-08T10:37:44;23.27;;;13.20;;
76786;SDS011;65739;51.482;5.702;2024-03-08T10:40:18;26.80;;;13.63;;
76786;SDS011;65739;51.482;5.702;2024-03-08T10:42:55;23.00;;;13.35;;
76786;SDS011;65739;51.482;5.702;2024-03-08T10:45:38;28.23;;;14.65;;
76786;SDS011;65739;51.482;5.702;2024-03-08T10:50:56;23.08;;;12.85;;
76786;SDS011;65739;51.482;5.702;2024-03-08T10:53:30;20.77;;;12.55;;
76786;SDS011;65739;51.482;5.702;2024-03-08T10:55:56;19.85;;;12.27;;
76786;SDS011;65739;51.482;5.702;2024-03-08T10:58:23;20.92;;;12.27;;
76786;SDS011;65739;51.482;5.702;2024-03-08T11:00:56;22.60;;;11.80;;
76786;SDS011;65739;51.482;5.702;2024-03-08T11:08:43;18.58;;;10.90;;
76786;SDS011;65739;51.482;5.702;2024-03-08T11:13:52;41.17;;;12.25;;
76786;SDS011;65739;51.482;5.702;2024-03-08T11:18:53;23.75;;;9.93;;
76786;SDS011;65739;51.482;5.702;2024-03-08T11:21:24;16.55;;;9.63;;
76786;SDS011;65739;51.482;5.702;2024-03-08T11:24:01;15.73;;;8.68;;
76786;SDS011;65739;51.482;5.702;2024-03-08T11:26:30;14.27;;;8.38;;
76786;SDS011;65739;51.482;5.702;2024-03-08T11:29:32;12.18;;;8.32;;
76786;SDS011;65739;51.482;5.702;2024-03-08T11:32:19;14.63;;;8.60;;
76786;SDS011;65739;51.482;5.702;2024-03-08T11:34:53;17.40;;;8.93;;
76786;SDS011;65739;51.482;5.702;2024-03-08T11:37:19;13.07;;;8.45;;
76786;SDS011;65739;51.482;5.702;2024-03-08T11:39:53;14.55;;;8.48;;
76786;SDS011;65739;51.482;5.702;2024-03-08T11:42:24;11.85;;;8.40;;
76786;SDS011;65739;51.482;5.702;2024-03-08T11:44:53;15.80;;;8.80;;
76786;SDS011;65739;51.482;5.702;2024-03-08T11:47:19;11.82;;;8.40;;
76786;SDS011;65739;51.482;5.702;2024-03-08T11:49:45;11.30;;;8.50;;
76786;SDS011;65739;51.482;5.702;2024-03-08T11:52:16;14.88;;;8.50;;
76786;SDS011;65739;51.482;5.702;2024-03-08T11:54:48;12.97;;;8.93;;
76786;SDS011;65739;51.482;5.702;2024-03-08T11:57:19;13.43;;;9.13;;
76786;SDS011;65739;51.482;5.702;2024-03-08T11:59:53;13.93;;;8.75;;
76786;SDS011;65739;51.482;5.702;2024-03-08T12:02:20;15.60;;;9.45;;
76786;SDS011;65739;51.482;5.702;2024-03-08T12:04:47;15.93;;;9.32;;
76786;SDS011;65739;51.482;5.702;2024-03-08T12:07:20;12.82;;;8.98;;
76786;SDS011;65739;51.482;5.702;2024-03-08T12:12:46;13.02;;;9.23;;
76786;SDS011;65739;51.482;5.702;2024-03-08T12:15:16;13.52;;;9.02;;
76786;SDS011;65739;51.482;5.702;2024-03-08T12:17:43;12.50;;;8.45;;
76786;SDS011;65739;51.482;5.702;2024-03-08T12:20:16;13.40;;;8.65;;
76786;SDS011;65739;51.482;5.702;2024-03-08T12:23:04;17.17;;;8.25;;
76786;SDS011;65739;51.482;5.702;2024-03-08T12:25:33;12.10;;;8.60;;
76786;SDS011;65739;51.482;5.702;2024-03-08T12:28:12;12.82;;;7.60;;
76786;SDS011;65739;51.482;5.702;2024-03-08T12:30:46;12.30;;;8.30;;
76786;SDS011;65739;51.482;5.702;2024-03-08T12:33:20;13.77;;;8.63;;
76786;SDS011;65739;51.482;5.702;2024-03-08T12:35:53;10.90;;;7.85;;
76786;SDS011;65739;51.482;5.702;2024-03-08T12:38:21;12.48;;;7.50;;
76786;SDS011;65739;51.482;5.702;2024-03-08T12:40:50;10.70;;;8.30;;
76786;SDS011;65739;51.482;5.702;2024-03-08T12:43:22;11.38;;;7.97;;
76786;SDS011;65739;51.482;5.702;2024-03-08T12:45:47;11.95;;;7.30;;
76786;SDS011;65739;51.482;5.702;2024-03-08T12:48:13;11.85;;;7.70;;
76786;SDS011;65739;51.482;5.702;2024-03-08T12:50:41;12.32;;;8.30;;
76786;SDS011;65739;51.482;5.702;2024-03-08T12:53:12;11.18;;;7.65;;
76786;SDS011;65739;51.482;5.702;2024-03-08T12:55:40;11.40;;;7.63;;
76786;SDS011;65739;51.482;5.702;2024-03-08T12:58:06;13.38;;;8.07;;
76786;SDS011;65739;51.482;5.702;2024-03-08T13:00:38;11.38;;;7.72;;
76786;SDS011;65739;51.482;5.702;2024-03-08T13:03:07;11.48;;;7.88;;
76786;SDS011;65739;51.482;5.702;2024-03-08T13:05:35;10.38;;;7.32;;
76786;SDS011;65739;51.482;5.702;2024-03-08T13:08:07;10.25;;;7.50;;
76786;SDS011;65739;51.482;5.702;2024-03-08T13:10:38;11.63;;;7.97;;
76786;SDS011;65739;51.482;5.702;2024-03-08T13:13:19;12.45;;;8.27;;
76786;SDS011;65739;51.482;5.702;2024-03-08T13:15:45;14.98;;;8.52;;
76786;SDS011;65739;51.482;5.702;2024-03-08T13:18:21;11.70;;;7.55;;
76786;SDS011;65739;51.482;5.702;2024-03-08T13:20:48;14.25;;;8.20;;
76786;SDS011;65739;51.482;5.702;2024-03-08T13:23:17;12.95;;;7.97;;
76786;SDS011;65739;51.482;5.702;2024-03-08T13:25:42;10.98;;;7.85;;
76786;SDS011;65739;51.482;5.702;2024-03-08T13:28:08;13.65;;;7.80;;
76786;SDS011;65739;51.482;5.702;2024-03-08T13:30:35;11.63;;;8.02;;
76786;SDS011;65739;51.482;5.702;2024-03-08T13:33:04;12.32;;;7.85;;
76786;SDS011;65739;51.482;5.702;2024-03-08T13:35:37;11.60;;;7.60;;
76786;SDS011;65739;51.482;5.702;2024-03-08T13:38:05;10.88;;;7.72;;
76786;SDS011;65739;51.482;5.702;2024-03-08T13:40:38;14.57;;;9.13;;
76786;SDS011;65739;51.482;5.702;2024-03-08T13:43:07;11.02;;;8.10;;
76786;SDS011;65739;51.482;5.702;2024-03-08T13:45:37;12.05;;;8.35;;
76786;SDS011;65739;51.482;5.702;2024-03-08T13:48:03;11.13;;;7.78;;
76786;SDS011;65739;51.482;5.702;2024-03-08T13:50:31;13.23;;;8.32;;
76786;SDS011;65739;51.482;5.702;2024-03-08T13:52:56;11.13;;;7.63;;
76786;SDS011;65739;51.482;5.702;2024-03-08T13:55:22;14.48;;;8.50;;
76786;SDS011;65739;51.482;5.702;2024-03-08T13:57:50;12.10;;;8.25;;
76786;SDS011;65739;51.482;5.702;2024-03-08T14:00:18;12.18;;;7.43;;
76786;SDS011;65739;51.482;5.702;2024-03-08T14:02:52;11.23;;;8.13;;
76786;SDS011;65739;51.482;5.702;2024-03-08T14:05:19;11.63;;;7.90;;
76786;SDS011;65739;51.482;5.702;2024-03-08T14:07:45;11.18;;;7.68;;
76786;SDS011;65739;51.482;5.702;2024-03-08T14:10:13;11.63;;;7.90;;
76786;SDS011;65739;51.482;5.702;2024-03-08T14:12:40;11.48;;;7.90;;
76786;SDS011;65739;51.482;5.702;2024-03-08T14:15:07;11.40;;;7.65;;
76786;SDS011;65739;51.482;5.702;2024-03-08T14:17:34;11.63;;;7.72;;
76786;SDS011;65739;51.482;5.702;2024-03-08T14:20:00;11.27;;;7.32;;
76786;SDS011;65739;51.482;5.702;2024-03-08T14:22:26;10.63;;;7.43;;
76786;SDS011;65739;51.482;5.702;2024-03-08T14:24:59;11.13;;;7.30;;
76786;SDS011;65739;51.482;5.702;2024-03-08T14:27:24;10.43;;;7.20;;
76786;SDS011;65739;51.482;5.702;2024-03-08T14:29:53;12.40;;;7.30;;
76786;SDS011;65739;51.482;5.702;2024-03-08T14:32:19;9.70;;;7.38;;
76786;SDS011;65739;51.482;5.702;2024-03-08T14:34:47;10.75;;;6.63;;
76786;SDS011;65739;51.482;5.702;2024-03-08T14:37:14;10.75;;;7.60;;
76786;SDS011;65739;51.482;5.702;2024-03-08T14:39:39;13.90;;;7.45;;
76786;SDS011;65739;51.482;5.702;2024-03-08T14:42:05;9.48;;;7.00;;
76786;SDS011;65739;51.482;5.702;2024-03-08T14:44:33;10.98;;;6.82;;
76786;SDS011;65739;51.482;5.702;2024-03-08T14:46:59;11.15;;;7.50;;
76786;SDS011;65739;51.482;5.702;2024-03-08T14:49:25;9.63;;;6.45;;
76786;SDS011;65739;51.482;5.702;2024-03-08T14:51:54;13.52;;;7.03;;
76786;SDS011;65739;51.482;5.702;2024-03-08T14:54:20;11.52;;;6.93;;
76786;SDS011;65739;51.482;5.702;2024-03-08T14:56:48;12.15;;;7.22;;
76786;SDS011;65739;51.482;5.702;2024-03-08T14:59:15;10.55;;;7.30;;
76786;SDS011;65739;51.482;5.702;2024-03-08T15:01:41;10.32;;;7.10;;
76786;SDS011;65739;51.482;5.702;2024-03-08T15:04:09;9.95;;;6.80;;
76786;SDS011;65739;51.482;5.702;2024-03-08T15:06:35;11.38;;;7.40;;
76786;SDS011;65739;51.482;5.702;2024-03-08T15:09:02;11.07;;;7.75;;
76786;SDS011;65739;51.482;5.702;2024-03-08T15:11:44;10.20;;;6.47;;
76786;SDS011;65739;51.482;5.702;2024-03-08T15:14:10;9.60;;;6.72;;
76786;SDS011;65739;51.482;5.702;2024-03-08T15:16:40;12.30;;;6.45;;
76786;SDS011;65739;51.482;5.702;2024-03-08T15:19:07;12.73;;;7.18;;
76786;SDS011;65739;51.482;5.702;2024-03-08T15:21:33;9.50;;;6.93;;
76786;SDS011;65739;51.482;5.702;2024-03-08T15:23:59;10.65;;;6.30;;
76786;SDS011;65739;51.482;5.702;2024-03-08T15:26:27;10.57;;;7.13;;
76786;SDS011;65739;51.482;5.702;2024-03-08T15:28:55;12.00;;;6.97;;
76786;SDS011;65739;51.482;5.702;2024-03-08T15:31:21;16.60;;;7.22;;
76786;SDS011;65739;51.482;5.702;2024-03-08T15:33:49;12.05;;;6.93;;
76786;SDS011;65739;51.482;5.702;2024-03-08T15:36:23;9.63;;;6.72;;
76786;SDS011;65739;51.482;5.702;2024-03-08T15:38:53;10.20;;;6.88;;
76786;SDS011;65739;51.482;5.702;2024-03-08T15:41:18;11.77;;;6.68;;
76786;SDS011;65739;51.482;5.702;2024-03-08T15:43:45;11.60;;;6.57;;
76786;SDS011;65739;51.482;5.702;2024-03-08T15:46:11;10.25;;;6.85;;
76786;SDS011;65739;51.482;5.702;2024-03-08T15:48:47;9.77;;;7.20;;
76786;SDS011;65739;51.482;5.702;2024-03-08T15:51:14;10.95;;;7.22;;
76786;SDS011;65739;51.482;5.702;2024-03-08T15:53:42;13.20;;;6.88;;
76786;SDS011;65739;51.482;5.702;2024-03-08T15:56:09;9.40;;;6.40;;
76786;SDS011;65739;51.482;5.702;2024-03-08T15:58:36;9.75;;;6.43;;
76786;SDS011;65739;51.482;5.702;2024-03-08T16:01:01;10.88;;;6.70;;
76786;SDS011;65739;51.482;5.702;2024-03-08T16:03:35;10.90;;;7.07;;
76786;SDS011;65739;51.482;5.702;2024-03-08T16:06:01;10.77;;;7.20;;
76786;SDS011;65739;51.482;5.702;2024-03-08T16:08:29;10.05;;;6.97;;
76786;SDS011;65739;51.482;5.702;2024-03-08T16:10:55;10.45;;;6.63;;
76786;SDS011;65739;51.482;5.702;2024-03-08T16:13:22;11.30;;;6.88;;
76786;SDS011;65739;51.482;5.702;2024-03-08T16:15:49;11.60;;;6.93;;
76786;SDS011;65739;51.482;5.702;2024-03-08T16:18:16;11.45;;;7.45;;
76786;SDS011;65739;51.482;5.702;2024-03-08T16:20:49;11.13;;;7.13;;
76786;SDS011;65739;51.482;5.702;2024-03-08T16:23:15;11.20;;;6.60;;
76786;SDS011;65739;51.482;5.702;2024-03-08T16:25:41;9.52;;;6.78;;
76786;SDS011;65739;51.482;5.702;2024-03-08T16:28:07;10.25;;;6.47;;
76786;SDS011;65739;51.482;5.702;2024-03-08T16:30:34;11.18;;;7.13;;
76786;SDS011;65739;51.482;5.702;2024-03-08T16:32:59;11.90;;;6.55;;
76786;SDS011;65739;51.482;5.702;2024-03-08T16:35:25;10.52;;;6.63;;
76786;SDS011;65739;51.482;5.702;2024-03-08T16:37:51;12.30;;;7.57;;
76786;SDS011;65739;51.482;5.702;2024-03-08T16:40:17;10.00;;;6.63;;
76786;SDS011;65739;51.482;5.702;2024-03-08T16:42:45;8.80;;;6.03;;
76786;SDS011;65739;51.482;5.702;2024-03-08T16:45:12;12.00;;;7.00;;
76786;SDS011;65739;51.482;5.702;2024-03-08T16:47:38;13.65;;;6.80;;
76786;SDS011;65739;51.482;5.702;2024-03-08T16:50:04;12.00;;;7.28;;
76786;SDS011;65739;51.482;5.702;2024-03-08T16:52:32;12.63;;;7.18;;
76786;SDS011;65739;51.482;5.702;2024-03-08T16:55:02;11.55;;;6.95;;
76786;SDS011;65739;51.482;5.702;2024-03-08T16:57:31;10.20;;;6.80;;
76786;SDS011;65739;51.482;5.702;2024-03-08T17:00:03;12.80;;;7.18;;
76786;SDS011;65739;51.482;5.702;2024-03-08T17:02:29;12.52;;;7.20;;
76786;SDS011;65739;51.482;5.702;2024-03-08T17:04:55;11.60;;;6.75;;
76786;SDS011;65739;51.482;5.702;2024-03-08T17:07:20;13.82;;;7.88;;
76786;SDS011;65739;51.482;5.702;2024-03-08T17:09:47;14.68;;;7.53;;
76786;SDS011;65739;51.482;5.702;2024-03-08T17:12:13;12.30;;;7.30;;
76786;SDS011;65739;51.482;5.702;2024-03-08T17:14:43;13.57;;;8.02;;
76786;SDS011;65739;51.482;5.702;2024-03-08T17:17:09;12.25;;;7.40;;
76786;SDS011;65739;51.482;5.702;2024-03-08T17:19:38;12.27;;;7.28;;
76786;SDS011;65739;51.482;5.702;2024-03-08T17:22:04;11.40;;;7.60;;
76786;SDS011;65739;51.482;5.702;2024-03-08T17:24:31;11.43;;;7.43;;
76786;SDS011;65739;51.482;5.702;2024-03-08T17:26:57;12.02;;;7.18;;
76786;SDS011;65739;51.482;5.702;2024-03-08T17:29:23;11.52;;;7.32;;
76786;SDS011;65739;51.482;5.702;2024-03-08T17:31:48;14.93;;;7.97;;
76786;SDS011;65739;51.482;5.702;2024-03-08T17:34:14;12.52;;;7.40;;
76786;SDS011;65739;51.482;5.702;2024-03-08T17:36:44;14.75;;;8.10;;
76786;SDS011;65739;51.482;5.702;2024-03-08T17:39:14;12.27;;;7.97;;
76786;SDS011;65739;51.482;5.702;2024-03-08T17:41:46;14.70;;;8.27;;
76786;SDS011;65739;51.482;5.702;2024-03-08T17:44:16;15.05;;;7.72;;
76786;SDS011;65739;51.482;5.702;2024-03-08T17:46:45;14.02;;;8.43;;
76786;SDS011;65739;51.482;5.702;2024-03-08T17:49:12;15.30;;;8.43;;
76786;SDS011;65739;51.482;5.702;2024-03-08T17:51:39;14.35;;;8.50;;
76786;SDS011;65739;51.482;5.702;2024-03-08T17:54:08;17.05;;;8.40;;
76786;SDS011;65739;51.482;5.702;2024-03-08T17:56:39;13.93;;;8.25;;
76786;SDS011;65739;51.482;5.702;2024-03-08T17:59:08;14.93;;;8.55;;
76786;SDS011;65739;51.482;5.702;2024-03-08T18:01:37;15.73;;;8.43;;
76786;SDS011;65739;51.482;5.702;2024-03-08T18:04:04;19.92;;;8.80;;
76786;SDS011;65739;51.482;5.702;2024-03-08T18:06:34;15.45;;;8.93;;
76786;SDS011;65739;51.482;5.702;2024-03-08T18:09:08;13.45;;;8.25;;
76786;SDS011;65739;51.482;5.702;2024-03-08T18:11:37;15.90;;;8.95;;
76786;SDS011;65739;51.482;5.702;2024-03-08T18:14:04;13.95;;;8.57;;
76786;SDS011;65739;51.482;5.702;2024-03-08T18:16:31;16.42;;;9.00;;
76786;SDS011;65739;51.482;5.702;2024-03-08T18:18:59;17.52;;;8.90;;
76786;SDS011;65739;51.482;5.702;2024-03-08T18:21:32;15.63;;;9.52;;
76786;SDS011;65739;51.482;5.702;2024-03-08T18:24:03;16.80;;;8.73;;
76786;SDS011;65739;51.482;5.702;2024-03-08T18:26:30;14.43;;;8.52;;
76786;SDS011;65739;51.482;5.702;2024-03-08T18:29:01;16.50;;;8.90;;
76786;SDS011;65739;51.482;5.702;2024-03-08T18:31:34;16.98;;;9.05;;